createdAt,value
2022-12-22T00:02:40.220Z,8.22
2022-12-22T00:05:33.094Z,8.21
2022-12-22T00:08:18.430Z,8.23
2022-12-22T00:11:05.667Z,8.26
2022-12-22T00:13:50.779Z,8.22
2022-12-22T00:16:36.040Z,8.27
2022-12-22T00:19:21.407Z,8.27
2022-12-22T00:22:06.671Z,8.27
2022-12-22T00:24:51.813Z,8.28
2022-12-22T00:27:45.829Z,8.26
2022-12-22T00:30:31.916Z,8.25
2022-12-22T00:33:17.543Z,8.25
2022-12-22T00:36:02.720Z,8.25
2022-12-22T00:38:48.275Z,8.11
2022-12-22T00:41:33.227Z,7.92
2022-12-22T00:44:19.776Z,7.68
2022-12-22T00:47:05.309Z,7.65
2022-12-22T00:49:51.578Z,7.67
2022-12-22T00:52:37.997Z,7.60
2022-12-22T00:55:31.295Z,7.56
2022-12-22T00:58:16.680Z,7.64
2022-12-22T01:01:03.442Z,7.58
2022-12-22T01:03:48.907Z,7.51
2022-12-22T01:06:34.163Z,7.52
2022-12-22T01:09:19.255Z,7.50
2022-12-22T01:12:04.716Z,7.53
2022-12-22T01:14:49.812Z,7.51
2022-12-22T01:17:36.124Z,7.56
2022-12-22T01:20:21.447Z,7.54
2022-12-22T01:23:06.658Z,7.31
2022-12-22T01:25:51.623Z,7.46
2022-12-22T01:28:36.838Z,7.63
2022-12-22T01:31:35.055Z,7.82
2022-12-22T01:34:21.561Z,7.84
2022-12-22T01:37:06.775Z,7.90
2022-12-22T01:39:51.992Z,7.94
2022-12-22T01:42:37.362Z,7.98
2022-12-22T01:45:37.464Z,7.96
2022-12-22T01:48:23.115Z,7.99
2022-12-22T01:51:09.716Z,8.08
2022-12-22T01:53:54.687Z,8.09
2022-12-22T01:56:40.265Z,8.10
2022-12-22T01:59:25.287Z,8.03
2022-12-22T02:02:10.817Z,8.00
2022-12-22T02:05:00.092Z,7.98
2022-12-22T02:08:00.253Z,8.02
2022-12-22T02:10:58.277Z,8.05
2022-12-22T02:13:51.058Z,8.11
2022-12-22T02:16:39.216Z,8.12
2022-12-22T02:19:31.194Z,8.16
2022-12-22T02:22:22.747Z,8.12
2022-12-22T02:25:15.608Z,8.11
2022-12-22T02:28:02.968Z,8.09
2022-12-22T02:30:49.731Z,8.18
2022-12-22T02:33:35.010Z,8.13
2022-12-22T02:36:23.575Z,8.11
2022-12-22T02:39:15.532Z,8.14
2022-12-22T02:42:05.126Z,8.06
2022-12-22T02:44:58.758Z,8.11
2022-12-22T02:47:48.268Z,8.12
2022-12-22T02:50:38.494Z,8.06
2022-12-22T02:53:24.462Z,8.09
2022-12-22T02:56:16.743Z,8.09
2022-12-22T02:59:02.046Z,8.11
2022-12-22T03:01:48.821Z,8.07
2022-12-22T03:04:34.310Z,8.03
2022-12-22T03:07:19.554Z,8.03
2022-12-22T03:10:04.700Z,7.98
2022-12-22T03:12:49.817Z,8.03
2022-12-22T03:15:35.048Z,8.04
2022-12-22T03:18:22.587Z,8.07
2022-12-22T03:21:07.653Z,8.13
2022-12-22T03:23:52.987Z,8.15
2022-12-22T03:26:20.519Z,8.22
2022-12-22T03:28:48.143Z,8.23
2022-12-22T03:31:15.669Z,8.26
2022-12-22T03:33:44.758Z,8.26
2022-12-22T03:36:12.622Z,8.27
2022-12-22T03:38:40.333Z,8.32
2022-12-22T03:41:07.903Z,8.34
2022-12-22T03:44:07.958Z,8.33
2022-12-22T03:46:35.730Z,8.29
2022-12-22T03:49:12.099Z,8.35
2022-12-22T03:51:42.808Z,8.35
2022-12-22T03:54:11.290Z,8.29
2022-12-22T03:56:39.392Z,8.39
2022-12-22T03:59:07.036Z,8.40
2022-12-22T04:01:38.008Z,8.46
2022-12-22T04:04:07.296Z,8.42
2022-12-22T04:06:35.023Z,8.45
2022-12-22T04:09:03.329Z,8.41
2022-12-22T04:11:49.031Z,8.44
2022-12-22T04:14:16.662Z,8.45
2022-12-22T04:16:44.437Z,8.41
2022-12-22T04:19:13.471Z,8.41
2022-12-22T04:21:41.043Z,8.43
2022-12-22T04:24:09.312Z,8.41
2022-12-22T04:26:36.985Z,8.43
2022-12-22T04:29:04.757Z,8.41
2022-12-22T04:31:32.349Z,8.43
2022-12-22T04:33:59.933Z,8.44
2022-12-22T04:36:28.980Z,8.40
2022-12-22T04:38:56.535Z,8.41
2022-12-22T04:41:24.045Z,8.44
2022-12-22T04:43:51.774Z,8.42
2022-12-22T04:46:19.399Z,8.31
2022-12-22T04:48:47.202Z,8.38
2022-12-22T04:51:14.930Z,8.39
2022-12-22T04:53:43.829Z,8.32
2022-12-22T04:56:11.366Z,8.25
2022-12-22T04:58:39.052Z,8.26
2022-12-22T05:01:11.061Z,8.29
2022-12-22T05:03:38.683Z,8.30
2022-12-22T05:06:06.763Z,8.24
2022-12-22T05:08:34.638Z,8.24
2022-12-22T05:11:04.016Z,8.27
2022-12-22T05:13:32.639Z,8.22
2022-12-22T05:16:06.069Z,8.30
2022-12-22T05:18:33.794Z,8.22
2022-12-22T05:21:03.905Z,8.28
2022-12-22T05:23:31.569Z,8.26
2022-12-22T05:25:59.085Z,8.34
2022-12-22T05:28:28.184Z,8.33
2022-12-22T05:30:56.080Z,8.39
2022-12-22T05:33:23.746Z,8.38
2022-12-22T05:35:51.259Z,8.42
2022-12-22T05:38:18.775Z,8.45
2022-12-22T05:40:46.334Z,8.48
2022-12-22T05:43:13.828Z,8.46
2022-12-22T05:45:42.947Z,8.49
2022-12-22T05:48:10.655Z,8.55
2022-12-22T05:50:38.273Z,8.55
2022-12-22T05:53:06.528Z,8.54
2022-12-22T05:55:34.820Z,8.56
2022-12-22T05:58:02.762Z,8.55
2022-12-22T06:00:31.625Z,8.52
2022-12-22T06:03:00.805Z,8.55
2022-12-22T06:05:28.557Z,8.56
2022-12-22T06:07:56.239Z,8.53
2022-12-22T06:10:24.229Z,8.55
2022-12-22T06:12:52.176Z,8.52
2022-12-22T06:15:19.846Z,8.57
2022-12-22T06:17:47.573Z,8.57
2022-12-22T06:20:16.616Z,8.63
2022-12-22T06:22:44.301Z,8.52
2022-12-22T06:25:17.605Z,8.55
2022-12-22T06:27:46.308Z,8.56
2022-12-22T06:30:14.747Z,8.63
2022-12-22T06:32:42.525Z,8.64
2022-12-22T06:35:11.194Z,8.63
2022-12-22T06:37:40.425Z,8.59
2022-12-22T06:40:09.377Z,8.60
2022-12-22T06:42:54.753Z,8.53
2022-12-22T06:45:22.331Z,8.53
2022-12-22T06:47:49.805Z,8.61
2022-12-22T06:50:17.792Z,8.62
2022-12-22T06:52:46.873Z,8.77
2022-12-22T06:55:14.580Z,8.79
2022-12-22T06:57:42.297Z,8.80
2022-12-22T07:00:12.104Z,8.82
2022-12-22T07:02:39.842Z,8.78
2022-12-22T07:05:08.304Z,8.80
2022-12-22T07:07:36.036Z,8.82
2022-12-22T07:10:05.741Z,8.80
2022-12-22T07:12:33.242Z,8.74
2022-12-22T07:15:00.951Z,8.77
2022-12-22T07:17:28.656Z,8.78
2022-12-22T07:19:56.332Z,8.77
2022-12-22T07:22:29.554Z,8.76
2022-12-22T07:24:57.877Z,8.74
2022-12-22T07:27:26.891Z,8.80
2022-12-22T07:29:54.402Z,8.78
2022-12-22T07:32:22.089Z,8.76
2022-12-22T07:34:49.847Z,8.79
2022-12-22T07:37:17.629Z,8.72
2022-12-22T07:39:45.184Z,8.69
2022-12-22T07:42:30.741Z,8.80
2022-12-22T07:44:59.866Z,8.72
2022-12-22T07:47:33.214Z,8.79
2022-12-22T07:50:20.253Z,8.78
2022-12-22T07:52:47.782Z,8.79
2022-12-22T07:55:15.649Z,8.78
2022-12-22T07:57:43.193Z,8.79
2022-12-22T08:00:14.076Z,8.78
2022-12-22T08:02:42.203Z,8.80
2022-12-22T08:05:10.738Z,8.80
2022-12-22T08:07:38.365Z,8.82
2022-12-22T08:10:06.521Z,8.81
2022-12-22T08:12:34.283Z,8.79
2022-12-22T08:15:01.879Z,8.85
2022-12-22T08:17:31.054Z,8.85
2022-12-22T08:19:58.888Z,8.84
2022-12-22T08:22:26.527Z,8.84
2022-12-22T08:24:55.065Z,8.87
2022-12-22T08:27:26.481Z,8.81
2022-12-22T08:29:56.719Z,8.85
2022-12-22T08:32:24.307Z,8.84
2022-12-22T08:34:54.206Z,8.83
2022-12-22T08:37:24.485Z,8.95
2022-12-22T08:39:55.654Z,8.91
2022-12-22T08:42:23.772Z,8.91
2022-12-22T08:44:53.390Z,9.03
2022-12-22T08:47:21.702Z,9.01
2022-12-22T08:49:49.949Z,9.04
2022-12-22T08:52:19.481Z,9.09
2022-12-22T08:54:47.559Z,9.05
2022-12-22T08:57:15.326Z,9.08
2022-12-22T08:59:43.082Z,9.10
2022-12-22T09:02:10.755Z,9.13
2022-12-22T09:04:38.874Z,9.13
2022-12-22T09:07:06.524Z,9.12
2022-12-22T09:09:35.731Z,9.15
2022-12-22T09:12:04.021Z,9.15
2022-12-22T09:14:32.702Z,9.25
2022-12-22T09:17:00.633Z,9.17
2022-12-22T09:19:28.412Z,9.22
2022-12-22T09:21:56.411Z,9.24
2022-12-22T09:24:24.088Z,9.30
2022-12-22T09:26:53.013Z,9.30
2022-12-22T09:29:20.523Z,9.42
2022-12-22T09:31:48.342Z,9.41
2022-12-22T09:34:18.533Z,9.47
2022-12-22T09:36:46.696Z,9.52
2022-12-22T09:39:14.913Z,9.66
2022-12-22T09:41:45.373Z,9.68
2022-12-22T09:44:19.843Z,9.71
2022-12-22T09:46:47.665Z,9.64
2022-12-22T09:49:17.168Z,9.57
2022-12-22T09:51:45.995Z,9.54
2022-12-22T09:54:14.821Z,9.51
2022-12-22T09:56:42.826Z,9.45
2022-12-22T09:59:12.414Z,9.46
2022-12-22T10:01:58.229Z,9.51
2022-12-22T10:04:38.876Z,9.42
2022-12-22T10:07:16.784Z,9.51
2022-12-22T10:09:52.245Z,9.50
2022-12-22T10:12:22.374Z,9.70
2022-12-22T10:14:52.047Z,9.70
2022-12-22T10:17:24.089Z,9.47
2022-12-22T10:19:53.103Z,9.50
2022-12-22T10:22:26.901Z,9.51
2022-12-22T10:24:54.803Z,9.44
2022-12-22T10:27:28.440Z,9.41
2022-12-22T10:30:21.525Z,9.52
2022-12-22T10:33:10.549Z,9.52
2022-12-22T10:35:49.854Z,9.52
2022-12-22T10:38:22.119Z,9.53
2022-12-22T10:40:56.721Z,9.41
2022-12-22T10:43:31.000Z,9.35
2022-12-22T10:45:59.353Z,9.28
2022-12-22T10:48:29.969Z,9.41
2022-12-22T10:50:58.621Z,9.33
2022-12-22T10:53:40.466Z,9.44
2022-12-22T10:56:09.063Z,9.61
2022-12-22T10:58:49.614Z,9.60
2022-12-22T11:01:25.257Z,9.74
2022-12-22T11:03:54.562Z,9.86
2022-12-22T11:06:22.438Z,9.92
2022-12-22T11:08:51.816Z,10.14
2022-12-22T11:11:35.061Z,9.92
2022-12-22T11:14:12.481Z,9.90
2022-12-22T11:16:45.022Z,10.07
2022-12-22T11:19:28.044Z,9.92
2022-12-22T11:22:00.841Z,9.92
2022-12-22T11:24:37.578Z,9.98
2022-12-22T11:27:19.387Z,9.78
2022-12-22T11:30:05.010Z,9.81
2022-12-22T11:32:49.665Z,9.69
2022-12-22T11:35:27.462Z,9.71
2022-12-22T11:37:58.976Z,9.61
2022-12-22T11:40:32.686Z,9.55
2022-12-22T11:43:19.487Z,9.45
2022-12-22T11:46:00.875Z,9.29
2022-12-22T11:48:50.720Z,9.19
2022-12-22T11:51:28.025Z,9.12
2022-12-22T11:54:14.052Z,9.03
2022-12-22T11:56:42.653Z,9.05
2022-12-22T11:59:21.824Z,9.10
2022-12-22T12:02:23.353Z,9.22
2022-12-22T12:05:32.690Z,9.43
2022-12-22T12:08:07.255Z,9.65
2022-12-22T12:10:39.420Z,9.69
2022-12-22T12:13:11.668Z,9.79
2022-12-22T12:15:42.432Z,9.92
2022-12-22T12:18:38.233Z,10.10
2022-12-22T12:21:21.444Z,9.86
2022-12-22T12:24:08.700Z,9.88
2022-12-22T12:26:41.316Z,9.74
2022-12-22T12:29:16.094Z,9.67
2022-12-22T12:31:45.337Z,9.81
2022-12-22T12:34:16.719Z,9.81
2022-12-22T12:36:48.645Z,9.74
2022-12-22T12:39:22.522Z,9.78
2022-12-22T12:41:57.565Z,9.76
2022-12-22T12:44:28.227Z,9.74
2022-12-22T12:47:00.435Z,9.76
2022-12-22T12:50:00.033Z,9.77
2022-12-22T12:53:04.882Z,9.69
2022-12-22T12:55:36.095Z,9.68
2022-12-22T12:58:05.169Z,9.77
2022-12-22T13:00:49.904Z,9.68
2022-12-22T13:06:51.053Z,9.63
2022-12-22T13:12:38.924Z,9.87
2022-12-22T13:15:28.464Z,9.99
2022-12-22T13:17:58.041Z,9.78
2022-12-22T13:20:28.663Z,9.91
2022-12-22T13:22:58.322Z,9.74
2022-12-22T13:25:28.642Z,9.74
2022-12-22T13:27:58.631Z,9.84
2022-12-22T13:30:29.521Z,9.86
2022-12-22T13:32:57.979Z,9.83
2022-12-22T13:35:44.799Z,9.83
2022-12-22T13:38:30.318Z,9.77
2022-12-22T13:40:58.979Z,9.74
2022-12-22T13:43:28.691Z,9.67
2022-12-22T13:45:57.715Z,9.65
2022-12-22T13:48:27.871Z,9.69
2022-12-22T13:50:57.545Z,9.69
2022-12-22T13:56:22.440Z,9.52
2022-12-22T13:58:56.787Z,9.37
2022-12-22T14:01:24.603Z,9.19
2022-12-22T14:04:01.779Z,9.09
2022-12-22T14:06:33.493Z,9.16
2022-12-22T14:09:14.639Z,9.78
2022-12-22T14:11:50.789Z,9.84
2022-12-22T14:14:23.375Z,9.40
2022-12-22T14:16:52.302Z,9.17
2022-12-22T14:19:21.893Z,8.90
2022-12-22T14:21:52.158Z,8.70
2022-12-22T14:24:21.937Z,8.60
2022-12-22T14:26:49.783Z,8.63
2022-12-22T14:29:22.485Z,8.70
2022-12-22T14:31:55.074Z,8.76
2022-12-22T14:34:27.705Z,8.82
2022-12-22T14:36:58.943Z,8.84
2022-12-22T14:39:28.403Z,8.80
2022-12-22T14:41:58.145Z,8.73
2022-12-22T14:44:31.232Z,8.64
2022-12-22T14:47:07.168Z,8.66
2022-12-22T14:49:35.947Z,8.66
2022-12-22T14:52:08.579Z,8.65
2022-12-22T14:54:36.247Z,8.65
2022-12-22T14:57:13.367Z,8.64
2022-12-22T15:00:02.337Z,8.56
2022-12-22T15:02:38.600Z,8.45
2022-12-22T15:05:24.436Z,8.39
2022-12-22T15:08:05.932Z,8.29
2022-12-22T15:10:39.848Z,8.13
2022-12-22T15:13:13.497Z,7.97
2022-12-22T15:15:43.674Z,7.98
2022-12-22T15:18:13.592Z,7.92
2022-12-22T15:20:41.266Z,7.83
2022-12-22T15:23:12.352Z,7.75
2022-12-22T15:25:39.942Z,7.66
2022-12-22T15:28:07.625Z,7.62
2022-12-22T15:30:35.286Z,7.68
2022-12-22T15:33:04.453Z,7.60
2022-12-22T15:35:33.689Z,7.66
2022-12-22T15:38:02.383Z,7.72
2022-12-22T15:40:30.403Z,7.61
2022-12-22T15:42:57.945Z,7.65
2022-12-22T15:45:25.577Z,7.60
2022-12-22T15:47:54.963Z,7.67
2022-12-22T15:50:26.077Z,7.58
2022-12-22T15:52:55.196Z,7.72
2022-12-22T15:55:25.420Z,7.76
2022-12-22T15:57:55.069Z,7.68
2022-12-22T16:00:23.678Z,7.48
2022-12-22T16:02:52.099Z,7.54
2022-12-22T16:05:19.755Z,7.81
2022-12-22T16:07:49.054Z,7.57
2022-12-22T16:10:23.353Z,7.44
2022-12-22T16:12:54.598Z,7.49
2022-12-22T16:15:22.917Z,7.59
2022-12-22T16:17:52.107Z,7.40
2022-12-22T16:20:20.928Z,7.57
2022-12-22T16:22:51.316Z,7.64
2022-12-22T16:25:23.954Z,7.67
2022-12-22T16:27:51.869Z,7.57
2022-12-22T16:30:21.137Z,7.58
2022-12-22T16:32:49.139Z,7.54
2022-12-22T16:35:19.263Z,7.50
2022-12-22T16:37:48.878Z,7.65
2022-12-22T16:40:20.536Z,7.76
2022-12-22T16:45:37.389Z,7.63
2022-12-22T16:48:07.538Z,7.62
2022-12-22T16:50:35.167Z,7.54
2022-12-22T16:53:05.381Z,7.52
2022-12-22T16:55:36.075Z,7.46
2022-12-22T16:58:12.913Z,7.49
2022-12-22T17:00:42.303Z,7.49
2022-12-22T17:03:14.272Z,7.50
2022-12-22T17:05:44.988Z,7.42
2022-12-22T17:08:20.673Z,7.45
2022-12-22T17:10:49.890Z,7.40
2022-12-22T17:13:17.735Z,7.47
2022-12-22T17:15:45.397Z,7.44
2022-12-22T17:18:17.713Z,7.54
2022-12-22T17:20:45.702Z,7.58
2022-12-22T17:23:27.929Z,7.57
2022-12-22T17:25:57.068Z,7.65
2022-12-22T17:28:43.361Z,7.70
2022-12-22T17:31:15.459Z,7.66
2022-12-22T17:33:43.243Z,7.66
2022-12-22T17:36:18.660Z,7.53
2022-12-22T17:38:46.792Z,7.58
2022-12-22T17:41:15.598Z,7.51
2022-12-22T17:43:45.359Z,7.55
2022-12-22T17:46:17.957Z,7.44
2022-12-22T17:48:46.073Z,7.23
2022-12-22T17:51:22.194Z,7.21
2022-12-22T17:53:50.315Z,7.13
2022-12-22T17:56:20.118Z,7.07
2022-12-22T17:58:49.562Z,7.28
2022-12-22T18:01:25.527Z,7.42
2022-12-22T18:03:57.420Z,7.52
2022-12-22T18:06:28.645Z,7.58
2022-12-22T18:08:57.309Z,7.66
2022-12-22T18:11:25.990Z,7.68
2022-12-22T18:13:57.240Z,7.70
2022-12-22T18:16:25.156Z,7.69
2022-12-22T18:18:53.085Z,7.74
2022-12-22T18:21:22.200Z,7.73
2022-12-22T18:23:51.078Z,7.76
2022-12-22T18:26:23.787Z,7.73
2022-12-22T18:28:51.589Z,7.78
2022-12-22T18:31:21.025Z,7.75
2022-12-22T18:33:48.866Z,7.75
2022-12-22T18:36:19.337Z,7.77
2022-12-22T18:38:48.299Z,7.78
2022-12-22T18:41:20.506Z,7.75
2022-12-22T18:43:48.082Z,7.77
2022-12-22T18:46:15.754Z,7.77
2022-12-22T18:48:44.780Z,7.77
2022-12-22T18:51:19.490Z,7.74
2022-12-22T18:53:47.478Z,7.75
2022-12-22T18:56:15.656Z,7.79
2022-12-22T18:58:43.478Z,7.77
2022-12-22T19:01:19.108Z,7.79
2022-12-22T19:03:48.579Z,7.80
2022-12-22T19:06:17.430Z,7.84
2022-12-22T19:08:47.368Z,7.83
2022-12-22T19:11:16.344Z,7.85
2022-12-22T19:13:45.486Z,7.88
2022-12-22T19:16:14.873Z,7.88
2022-12-22T19:18:43.011Z,7.90
2022-12-22T19:21:14.327Z,7.90
2022-12-22T19:23:42.107Z,7.90
2022-12-22T19:26:19.308Z,7.94
2022-12-22T19:28:47.072Z,7.94
2022-12-22T19:31:22.006Z,7.97
2022-12-22T19:33:50.503Z,8.02
2022-12-22T19:36:22.403Z,8.05
2022-12-22T19:38:51.020Z,8.02
2022-12-22T19:41:30.089Z,7.99
2022-12-22T19:43:57.785Z,8.01
2022-12-22T19:46:27.177Z,8.08
2022-12-22T19:48:56.404Z,8.07
2022-12-22T19:51:25.354Z,8.06
2022-12-22T19:53:52.942Z,8.09
2022-12-22T19:56:23.493Z,8.09
2022-12-22T19:58:51.197Z,8.12
2022-12-22T20:01:19.048Z,8.14
2022-12-22T20:03:47.089Z,8.17
2022-12-22T20:06:14.926Z,8.17
2022-12-22T20:08:44.736Z,8.22
2022-12-22T20:11:15.047Z,8.21
2022-12-22T20:13:43.364Z,8.25
2022-12-22T20:16:14.033Z,8.28
2022-12-22T20:18:42.718Z,8.32
2022-12-22T20:21:14.159Z,8.32
2022-12-22T20:23:41.882Z,8.32
2022-12-22T20:26:15.848Z,8.34
2022-12-22T20:28:43.428Z,8.35
2022-12-22T20:31:14.228Z,8.38
2022-12-22T20:33:42.240Z,8.41
2022-12-22T20:36:17.256Z,8.42
2022-12-22T20:38:45.937Z,8.46
2022-12-22T20:41:14.868Z,8.48
2022-12-22T20:43:42.785Z,8.50
2022-12-22T20:46:15.487Z,8.54
2022-12-22T20:48:45.411Z,8.57
2022-12-22T20:51:15.744Z,8.56
2022-12-22T20:53:44.607Z,8.59
2022-12-22T20:56:19.883Z,8.64
2022-12-22T20:58:47.725Z,8.66
2022-12-22T21:01:16.586Z,8.68
2022-12-22T21:03:44.596Z,8.74
2022-12-22T21:06:23.992Z,8.78
2022-12-22T21:08:51.918Z,8.81
2022-12-22T21:11:20.967Z,8.83
2022-12-22T21:13:48.444Z,8.85
2022-12-22T21:16:18.375Z,8.85
2022-12-22T21:18:46.519Z,8.96
2022-12-22T21:21:14.896Z,8.92
2022-12-22T21:23:42.499Z,8.98
2022-12-22T21:26:19.380Z,8.97
2022-12-22T21:28:48.518Z,9.02
2022-12-22T21:31:16.505Z,9.02
2022-12-22T21:33:45.301Z,9.12
2022-12-22T21:36:18.922Z,9.11
2022-12-22T21:38:47.332Z,9.15
2022-12-22T21:41:14.873Z,9.15
2022-12-22T21:43:43.339Z,9.19
2022-12-22T21:46:13.861Z,9.27
2022-12-22T21:48:41.533Z,9.26
2022-12-22T21:51:12.887Z,9.33
2022-12-22T21:53:40.585Z,9.32
2022-12-22T21:56:17.136Z,9.37
2022-12-22T21:58:45.151Z,9.35
2022-12-22T22:01:16.198Z,9.42
2022-12-22T22:03:43.840Z,9.40
2022-12-22T22:06:11.412Z,9.49
2022-12-22T22:08:39.077Z,9.48
2022-12-22T22:11:12.895Z,9.50
2022-12-22T22:13:40.593Z,9.57
2022-12-22T22:16:09.355Z,9.52
2022-12-22T22:18:38.888Z,9.65
2022-12-22T22:21:08.479Z,9.62
2022-12-22T22:23:36.421Z,9.62
2022-12-22T22:26:04.491Z,9.75
2022-12-22T22:28:32.536Z,9.69
2022-12-22T22:31:00.343Z,9.87
2022-12-22T22:33:28.052Z,9.85
2022-12-22T22:36:00.721Z,9.90
2022-12-22T22:38:33.091Z,9.93
2022-12-22T22:41:00.676Z,9.90
2022-12-22T22:43:28.340Z,9.90
2022-12-22T22:45:56.060Z,9.91
2022-12-22T22:48:24.025Z,9.97
2022-12-22T22:50:51.964Z,9.92
2022-12-22T22:53:20.836Z,9.91
2022-12-22T22:55:48.385Z,9.94
2022-12-22T22:58:16.172Z,9.90
2022-12-22T23:00:43.863Z,9.90
2022-12-22T23:03:11.483Z,9.91
2022-12-22T23:05:39.121Z,9.87
2022-12-22T23:08:06.683Z,9.87
2022-12-22T23:10:41.277Z,9.95
2022-12-22T23:13:09.437Z,9.94
2022-12-22T23:15:36.982Z,9.94
2022-12-22T23:18:05.008Z,9.93
2022-12-22T23:20:32.672Z,9.99
2022-12-22T23:23:00.385Z,9.94
2022-12-22T23:25:28.135Z,9.91
2022-12-22T23:27:57.329Z,9.94
2022-12-22T23:30:25.270Z,10.02
2022-12-22T23:32:53.024Z,9.99
2022-12-22T23:35:20.566Z,9.99
2022-12-22T23:37:48.095Z,9.98
2022-12-22T23:40:50.528Z,9.96
2022-12-22T23:43:05.947Z,9.95
2022-12-22T23:45:34.011Z,9.97
2022-12-22T23:48:01.741Z,9.88
2022-12-22T23:50:29.530Z,9.85
2022-12-22T23:52:57.339Z,9.87
2022-12-22T23:55:25.099Z,9.83
2022-12-22T23:57:53.527Z,9.83
